This is the latest recevied weather packets stored in our database for station/object W4ZHA. If no packets are shown the sender has not sent any weather packets the latest 10 day(s).
| Time | Temp. | Humidity | Pressure | Rain* | Wind** | Luminosity | Snow |
|---|---|---|---|---|---|---|---|
| 1787782228 | 29.44° C | 60% | 1015.5 hPa | 0 mm | - | 48 W/m² | - |
| 1787781925 | 29.44° C | 60% | 1015.5 hPa | 0 mm | - | 52 W/m² | - |
| 1787781624 | 29.44° C | 58% | 1015.5 hPa | 0 mm | - | 56 W/m² | - |
| 1787781316 | 30° C | 59% | 1015.5 hPa | 0 mm | - | 62 W/m² | - |
| 1787781015 | 30° C | 58% | 1015.5 hPa | 0 mm | - | 67 W/m² | - |
| 1787780710 | 30° C | 57% | 1015.5 hPa | 0 mm | - | 74 W/m² | - |
| 1787780409 | 30.56° C | 58% | 1015.5 hPa | 0 mm | - | 76 W/m² | - |
| 1787780106 | 30.56° C | 58% | 1015.5 hPa | 0 mm | - | 80 W/m² | - |
| 1787779800 | 30.56° C | 58% | 1015.5 hPa | 0 mm | - | 84 W/m² | - |
| 1787779500 | 30° C | 59% | 1015.5 hPa | 0 mm | - | 93 W/m² | - |
| 1787779200 | 30.56° C | 56% | 1015.8 hPa | 0 mm | - | 110 W/m² | - |
| 1787778900 | 30.56° C | 58% | 1015.5 hPa | 0 mm | - | 122 W/m² | - |
| 1787778596 | 31.11° C | 57% | 1015.5 hPa | 0 mm | - | 136 W/m² | - |
| 1787778291 | 30.56° C | 59% | 1015.8 hPa | 0 mm | - | 145 W/m² | - |
| 1787777986 | 30.56° C | 56% | 1015.5 hPa | 0 mm | - | 137 W/m² | - |
| 1787777681 | 30° C | 59% | 1015.5 hPa | 0 mm | - | 130 W/m² | - |
| 1787777378 | 30.56° C | 58% | 1015.5 hPa | 0 mm | - | 134 W/m² | - |
| 1787777077 | 30.56° C | 57% | 1015.5 hPa | 0 mm | - | 139 W/m² | - |
| 1787776776 | 31.11° C | 54% | 1015.5 hPa | 0 mm | - | 148 W/m² | - |
| 1787776475 | 30.56° C | 55% | 1015.5 hPa | 0 mm | - | 155 W/m² | - |
| 1787776172 | 30.56° C | 57% | 1015.5 hPa | 0 mm | - | 153 W/m² | - |
| 1787775867 | 30.56° C | 55% | 1015.5 hPa | 0 mm | - | 162 W/m² | - |
| 1787775562 | 30° C | 56% | 1015.8 hPa | 0 mm | - | 164 W/m² | - |
| 1787775261 | 31.11° C | 48% | 1015.5 hPa | 0 mm | - | 146 W/m² | - |
| 1787774960 | 31.67° C | 54% | 1015.8 hPa | 0 mm | - | 183 W/m² | - |
* Rain latest hour (hover to see other rain measurements)
** Current wind speed in m/s (hover to see current wind gust speed)